sensor_id;sensor_type;location;lat;lon;timestamp;P1;durP1;ratioP1;P2;durP2;ratioP2
11893;SDS011;6006;49.696;8.662;2022-07-29T00:01:46;2.25;;;1.75;;
11893;SDS011;6006;49.696;8.662;2022-07-29T00:04:13;3.75;;;1.70;;
11893;SDS011;6006;49.696;8.662;2022-07-29T00:06:40;3.05;;;1.60;;
11893;SDS011;6006;49.696;8.662;2022-07-29T00:09:08;1.63;;;1.50;;
11893;SDS011;6006;49.696;8.662;2022-07-29T00:11:35;1.60;;;1.50;;
11893;SDS011;6006;49.696;8.662;2022-07-29T00:14:02;1.70;;;1.60;;
11893;SDS011;6006;49.696;8.662;2022-07-29T00:16:29;1.98;;;1.77;;
11893;SDS011;6006;49.696;8.662;2022-07-29T00:18:56;1.30;;;1.27;;
11893;SDS011;6006;49.696;8.662;2022-07-29T00:21:23;2.38;;;1.83;;
11893;SDS011;6006;49.696;8.662;2022-07-29T00:23:50;1.80;;;1.70;;
11893;SDS011;6006;49.696;8.662;2022-07-29T00:26:18;4.55;;;1.90;;
11893;SDS011;6006;49.696;8.662;2022-07-29T00:28:45;1.58;;;1.48;;
11893;SDS011;6006;49.696;8.662;2022-07-29T00:31:12;1.63;;;1.48;;
11893;SDS011;6006;49.696;8.662;2022-07-29T00:33:38;1.88;;;1.50;;
11893;SDS011;6006;49.696;8.662;2022-07-29T00:36:05;2.50;;;1.80;;
11893;SDS011;6006;49.696;8.662;2022-07-29T00:38:31;2.22;;;1.67;;
11893;SDS011;6006;49.696;8.662;2022-07-29T00:40:58;1.88;;;1.77;;
11893;SDS011;6006;49.696;8.662;2022-07-29T00:43:27;2.03;;;1.92;;
11893;SDS011;6006;49.696;8.662;2022-07-29T00:45:54;1.60;;;1.50;;
11893;SDS011;6006;49.696;8.662;2022-07-29T00:48:20;1.77;;;1.67;;
11893;SDS011;6006;49.696;8.662;2022-07-29T00:50:47;1.92;;;1.80;;
11893;SDS011;6006;49.696;8.662;2022-07-29T00:53:15;2.10;;;1.90;;
11893;SDS011;6006;49.696;8.662;2022-07-29T00:55:42;1.88;;;1.77;;
11893;SDS011;6006;49.696;8.662;2022-07-29T00:58:10;1.92;;;1.77;;
11893;SDS011;6006;49.696;8.662;2022-07-29T01:00:40;2.30;;;2.15;;
11893;SDS011;6006;49.696;8.662;2022-07-29T01:03:07;2.05;;;1.85;;
11893;SDS011;6006;49.696;8.662;2022-07-29T01:05:34;2.22;;;1.60;;
11893;SDS011;6006;49.696;8.662;2022-07-29T01:08:01;2.22;;;2.03;;
11893;SDS011;6006;49.696;8.662;2022-07-29T01:10:29;2.00;;;1.90;;
11893;SDS011;6006;49.696;8.662;2022-07-29T01:12:57;2.20;;;2.00;;
11893;SDS011;6006;49.696;8.662;2022-07-29T01:15:25;4.50;;;2.20;;
11893;SDS011;6006;49.696;8.662;2022-07-29T01:18:00;2.25;;;1.85;;
11893;SDS011;6006;49.696;8.662;2022-07-29T01:20:39;2.28;;;1.92;;
11893;SDS011;6006;49.696;8.662;2022-07-29T01:26:23;2.33;;;2.00;;
11893;SDS011;6006;49.696;8.662;2022-07-29T01:29:03;1.80;;;1.70;;
11893;SDS011;6006;49.696;8.662;2022-07-29T01:31:37;3.50;;;2.15;;
11893;SDS011;6006;49.696;8.662;2022-07-29T01:34:09;2.60;;;1.83;;
11893;SDS011;6006;49.696;8.662;2022-07-29T01:36:40;2.20;;;1.88;;
11893;SDS011;6006;49.696;8.662;2022-07-29T01:39:12;2.30;;;2.10;;
11893;SDS011;6006;49.696;8.662;2022-07-29T01:41:46;2.35;;;2.00;;
11893;SDS011;6006;49.696;8.662;2022-07-29T01:44:18;2.05;;;1.85;;
11893;SDS011;6006;49.696;8.662;2022-07-29T01:46:49;2.67;;;2.30;;
11893;SDS011;6006;49.696;8.662;2022-07-29T01:49:20;2.90;;;2.30;;
11893;SDS011;6006;49.696;8.662;2022-07-29T01:51:54;2.03;;;1.90;;
11893;SDS011;6006;49.696;8.662;2022-07-29T01:54:25;2.92;;;1.95;;
11893;SDS011;6006;49.696;8.662;2022-07-29T01:56:56;2.38;;;2.10;;
11893;SDS011;6006;49.696;8.662;2022-07-29T01:59:26;2.10;;;1.90;;
11893;SDS011;6006;49.696;8.662;2022-07-29T02:01:54;2.70;;;1.95;;
11893;SDS011;6006;49.696;8.662;2022-07-29T02:04:24;1.92;;;1.80;;
11893;SDS011;6006;49.696;8.662;2022-07-29T02:06:53;2.27;;;1.70;;
11893;SDS011;6006;49.696;8.662;2022-07-29T02:09:23;2.30;;;1.73;;
11893;SDS011;6006;49.696;8.662;2022-07-29T02:11:52;2.05;;;1.92;;
11893;SDS011;6006;49.696;8.662;2022-07-29T02:14:22;2.55;;;1.98;;
11893;SDS011;6006;49.696;8.662;2022-07-29T02:16:52;1.88;;;1.70;;
11893;SDS011;6006;49.696;8.662;2022-07-29T02:19:23;2.10;;;1.90;;
11893;SDS011;6006;49.696;8.662;2022-07-29T02:21:52;4.45;;;1.88;;
11893;SDS011;6006;49.696;8.662;2022-07-29T02:24:21;2.65;;;1.88;;
11893;SDS011;6006;49.696;8.662;2022-07-29T02:26:50;3.17;;;1.65;;
11893;SDS011;6006;49.696;8.662;2022-07-29T02:29:19;2.30;;;1.92;;
11893;SDS011;6006;49.696;8.662;2022-07-29T02:31:48;2.65;;;2.03;;
11893;SDS011;6006;49.696;8.662;2022-07-29T02:34:18;4.00;;;1.90;;
11893;SDS011;6006;49.696;8.662;2022-07-29T02:36:47;1.70;;;1.60;;
11893;SDS011;6006;49.696;8.662;2022-07-29T02:39:15;1.73;;;1.63;;
11893;SDS011;6006;49.696;8.662;2022-07-29T02:41:44;1.92;;;1.83;;
11893;SDS011;6006;49.696;8.662;2022-07-29T02:44:13;2.63;;;1.88;;
11893;SDS011;6006;49.696;8.662;2022-07-29T02:46:42;3.38;;;2.25;;
11893;SDS011;6006;49.696;8.662;2022-07-29T02:49:14;2.95;;;1.77;;
11893;SDS011;6006;49.696;8.662;2022-07-29T02:51:46;3.67;;;1.90;;
11893;SDS011;6006;49.696;8.662;2022-07-29T02:54:20;2.30;;;1.58;;
11893;SDS011;6006;49.696;8.662;2022-07-29T02:56:52;3.10;;;2.42;;
11893;SDS011;6006;49.696;8.662;2022-07-29T02:59:24;6.72;;;1.98;;
11893;SDS011;6006;49.696;8.662;2022-07-29T03:01:54;1.70;;;1.60;;
11893;SDS011;6006;49.696;8.662;2022-07-29T03:04:24;4.43;;;1.83;;
11893;SDS011;6006;49.696;8.662;2022-07-29T03:06:55;2.72;;;1.92;;
11893;SDS011;6006;49.696;8.662;2022-07-29T03:09:25;1.48;;;1.38;;
11893;SDS011;6006;49.696;8.662;2022-07-29T03:11:54;4.00;;;1.80;;
11893;SDS011;6006;49.696;8.662;2022-07-29T03:14:23;2.15;;;1.95;;
11893;SDS011;6006;49.696;8.662;2022-07-29T03:16:50;4.00;;;1.80;;
11893;SDS011;6006;49.696;8.662;2022-07-29T03:19:18;4.28;;;2.28;;
11893;SDS011;6006;49.696;8.662;2022-07-29T03:21:46;2.05;;;1.60;;
11893;SDS011;6006;49.696;8.662;2022-07-29T03:24:28;3.25;;;1.80;;
11893;SDS011;6006;49.696;8.662;2022-07-29T03:26:56;4.97;;;1.92;;
11893;SDS011;6006;49.696;8.662;2022-07-29T03:29:24;5.85;;;1.92;;
11893;SDS011;6006;49.696;8.662;2022-07-29T03:31:51;3.80;;;1.80;;
11893;SDS011;6006;49.696;8.662;2022-07-29T03:34:19;1.75;;;1.65;;
11893;SDS011;6006;49.696;8.662;2022-07-29T03:36:46;1.77;;;1.67;;
11893;SDS011;6006;49.696;8.662;2022-07-29T03:39:14;2.38;;;1.63;;
11893;SDS011;6006;49.696;8.662;2022-07-29T03:41:45;2.20;;;1.67;;
11893;SDS011;6006;49.696;8.662;2022-07-29T03:44:14;2.88;;;1.80;;
11893;SDS011;6006;49.696;8.662;2022-07-29T03:46:43;2.70;;;1.45;;
11893;SDS011;6006;49.696;8.662;2022-07-29T03:49:11;5.70;;;2.08;;
11893;SDS011;6006;49.696;8.662;2022-07-29T03:51:42;1.92;;;1.75;;
11893;SDS011;6006;49.696;8.662;2022-07-29T03:54:09;3.00;;;1.88;;
11893;SDS011;6006;49.696;8.662;2022-07-29T03:56:38;5.35;;;1.90;;
11893;SDS011;6006;49.696;8.662;2022-07-29T03:59:08;3.38;;;1.90;;
11893;SDS011;6006;49.696;8.662;2022-07-29T04:01:36;4.93;;;2.05;;
11893;SDS011;6006;49.696;8.662;2022-07-29T04:04:04;2.47;;;2.00;;
11893;SDS011;6006;49.696;8.662;2022-07-29T04:06:37;3.22;;;1.80;;
11893;SDS011;6006;49.696;8.662;2022-07-29T04:09:04;1.73;;;1.40;;
11893;SDS011;6006;49.696;8.662;2022-07-29T04:11:31;2.88;;;1.90;;
11893;SDS011;6006;49.696;8.662;2022-07-29T04:13:59;2.95;;;1.95;;
11893;SDS011;6006;49.696;8.662;2022-07-29T04:16:27;3.10;;;2.40;;
11893;SDS011;6006;49.696;8.662;2022-07-29T04:18:54;4.90;;;2.20;;
11893;SDS011;6006;49.696;8.662;2022-07-29T04:21:21;2.80;;;2.00;;
11893;SDS011;6006;49.696;8.662;2022-07-29T04:23:48;1.98;;;1.88;;
11893;SDS011;6006;49.696;8.662;2022-07-29T04:26:15;3.55;;;1.95;;
11893;SDS011;6006;49.696;8.662;2022-07-29T04:28:42;2.20;;;2.00;;
11893;SDS011;6006;49.696;8.662;2022-07-29T04:31:09;2.72;;;1.83;;
11893;SDS011;6006;49.696;8.662;2022-07-29T04:33:37;3.08;;;2.10;;
11893;SDS011;6006;49.696;8.662;2022-07-29T04:36:04;3.50;;;1.90;;
11893;SDS011;6006;49.696;8.662;2022-07-29T04:38:31;4.03;;;1.95;;
11893;SDS011;6006;49.696;8.662;2022-07-29T04:40:58;4.53;;;1.90;;
11893;SDS011;6006;49.696;8.662;2022-07-29T04:43:25;3.88;;;1.70;;
11893;SDS011;6006;49.696;8.662;2022-07-29T04:45:52;2.83;;;2.00;;
11893;SDS011;6006;49.696;8.662;2022-07-29T04:48:19;2.47;;;2.00;;
11893;SDS011;6006;49.696;8.662;2022-07-29T04:50:47;3.53;;;2.13;;
11893;SDS011;6006;49.696;8.662;2022-07-29T04:53:14;4.03;;;2.20;;
11893;SDS011;6006;49.696;8.662;2022-07-29T04:55:41;3.03;;;2.25;;
11893;SDS011;6006;49.696;8.662;2022-07-29T04:58:08;3.60;;;2.25;;
11893;SDS011;6006;49.696;8.662;2022-07-29T05:00:35;3.70;;;1.95;;
11893;SDS011;6006;49.696;8.662;2022-07-29T05:03:01;2.90;;;2.00;;
11893;SDS011;6006;49.696;8.662;2022-07-29T05:05:29;15.82;;;3.22;;
11893;SDS011;6006;49.696;8.662;2022-07-29T05:07:57;3.40;;;2.15;;
11893;SDS011;6006;49.696;8.662;2022-07-29T05:10:24;9.68;;;2.50;;
11893;SDS011;6006;49.696;8.662;2022-07-29T05:12:51;6.13;;;1.75;;
11893;SDS011;6006;49.696;8.662;2022-07-29T05:15:18;2.30;;;2.10;;
11893;SDS011;6006;49.696;8.662;2022-07-29T05:17:45;2.20;;;2.00;;
11893;SDS011;6006;49.696;8.662;2022-07-29T05:20:12;2.78;;;2.50;;
11893;SDS011;6006;49.696;8.662;2022-07-29T05:22:39;3.47;;;2.20;;
11893;SDS011;6006;49.696;8.662;2022-07-29T05:25:07;5.07;;;2.30;;
11893;SDS011;6006;49.696;8.662;2022-07-29T05:27:35;3.15;;;1.95;;
11893;SDS011;6006;49.696;8.662;2022-07-29T05:30:02;2.10;;;2.00;;
11893;SDS011;6006;49.696;8.662;2022-07-29T05:32:30;3.25;;;2.00;;
11893;SDS011;6006;49.696;8.662;2022-07-29T05:34:56;2.10;;;2.00;;
11893;SDS011;6006;49.696;8.662;2022-07-29T05:37:23;2.25;;;2.05;;
11893;SDS011;6006;49.696;8.662;2022-07-29T05:39:50;2.20;;;1.85;;
11893;SDS011;6006;49.696;8.662;2022-07-29T05:42:18;3.28;;;2.15;;
11893;SDS011;6006;49.696;8.662;2022-07-29T05:44:45;5.05;;;1.83;;
11893;SDS011;6006;49.696;8.662;2022-07-29T05:47:13;2.38;;;2.17;;
11893;SDS011;6006;49.696;8.662;2022-07-29T05:49:41;2.72;;;2.20;;
11893;SDS011;6006;49.696;8.662;2022-07-29T05:52:07;3.75;;;2.20;;
11893;SDS011;6006;49.696;8.662;2022-07-29T05:54:35;3.22;;;1.92;;
11893;SDS011;6006;49.696;8.662;2022-07-29T05:57:02;3.45;;;2.35;;
11893;SDS011;6006;49.696;8.662;2022-07-29T05:59:30;6.82;;;2.30;;
11893;SDS011;6006;49.696;8.662;2022-07-29T06:01:57;3.17;;;2.10;;
11893;SDS011;6006;49.696;8.662;2022-07-29T06:04:24;2.03;;;1.90;;
11893;SDS011;6006;49.696;8.662;2022-07-29T06:06:51;2.35;;;1.98;;
11893;SDS011;6006;49.696;8.662;2022-07-29T06:09:18;2.75;;;1.90;;
11893;SDS011;6006;49.696;8.662;2022-07-29T06:11:45;2.50;;;2.30;;
11893;SDS011;6006;49.696;8.662;2022-07-29T06:14:12;4.30;;;2.00;;
11893;SDS011;6006;49.696;8.662;2022-07-29T06:16:41;4.40;;;2.17;;
11893;SDS011;6006;49.696;8.662;2022-07-29T06:19:07;3.65;;;2.30;;
11893;SDS011;6006;49.696;8.662;2022-07-29T06:21:35;3.42;;;2.13;;
11893;SDS011;6006;49.696;8.662;2022-07-29T06:24:01;3.72;;;1.75;;
11893;SDS011;6006;49.696;8.662;2022-07-29T06:26:29;2.85;;;2.33;;
11893;SDS011;6006;49.696;8.662;2022-07-29T06:28:55;4.40;;;2.55;;
11893;SDS011;6006;49.696;8.662;2022-07-29T06:31:22;2.90;;;1.88;;
11893;SDS011;6006;49.696;8.662;2022-07-29T06:33:50;3.50;;;2.20;;
11893;SDS011;6006;49.696;8.662;2022-07-29T06:36:17;2.47;;;2.13;;
11893;SDS011;6006;49.696;8.662;2022-07-29T06:38:45;3.67;;;2.40;;
11893;SDS011;6006;49.696;8.662;2022-07-29T06:41:11;2.28;;;2.00;;
11893;SDS011;6006;49.696;8.662;2022-07-29T06:43:41;4.35;;;2.35;;
11893;SDS011;6006;49.696;8.662;2022-07-29T06:46:10;2.50;;;2.20;;
11893;SDS011;6006;49.696;8.662;2022-07-29T06:48:38;3.45;;;2.08;;
11893;SDS011;6006;49.696;8.662;2022-07-29T06:51:08;2.30;;;2.03;;
11893;SDS011;6006;49.696;8.662;2022-07-29T06:53:37;3.72;;;2.00;;
11893;SDS011;6006;49.696;8.662;2022-07-29T06:56:05;2.53;;;2.33;;
11893;SDS011;6006;49.696;8.662;2022-07-29T06:58:33;3.92;;;2.53;;
11893;SDS011;6006;49.696;8.662;2022-07-29T07:01:04;2.40;;;2.00;;
11893;SDS011;6006;49.696;8.662;2022-07-29T07:03:32;2.85;;;2.30;;
11893;SDS011;6006;49.696;8.662;2022-07-29T07:05:59;3.60;;;2.30;;
11893;SDS011;6006;49.696;8.662;2022-07-29T07:08:27;2.45;;;2.25;;
11893;SDS011;6006;49.696;8.662;2022-07-29T07:10:54;2.72;;;2.53;;
11893;SDS011;6006;49.696;8.662;2022-07-29T07:13:22;2.67;;;2.30;;
11893;SDS011;6006;49.696;8.662;2022-07-29T07:15:49;4.75;;;2.47;;
11893;SDS011;6006;49.696;8.662;2022-07-29T07:18:17;2.33;;;2.05;;
11893;SDS011;6006;49.696;8.662;2022-07-29T07:20:44;4.50;;;2.40;;
11893;SDS011;6006;49.696;8.662;2022-07-29T07:23:11;3.50;;;2.55;;
11893;SDS011;6006;49.696;8.662;2022-07-29T07:25:39;2.65;;;2.47;;
11893;SDS011;6006;49.696;8.662;2022-07-29T07:28:07;3.63;;;2.97;;
11893;SDS011;6006;49.696;8.662;2022-07-29T07:30:34;2.92;;;2.58;;
11893;SDS011;6006;49.696;8.662;2022-07-29T07:33:00;2.95;;;2.28;;
11893;SDS011;6006;49.696;8.662;2022-07-29T07:35:28;2.85;;;2.65;;
11893;SDS011;6006;49.696;8.662;2022-07-29T07:37:55;2.50;;;2.30;;
11893;SDS011;6006;49.696;8.662;2022-07-29T07:40:23;2.30;;;2.00;;
11893;SDS011;6006;49.696;8.662;2022-07-29T07:42:52;2.30;;;2.10;;
11893;SDS011;6006;49.696;8.662;2022-07-29T07:45:19;2.33;;;2.13;;
11893;SDS011;6006;49.696;8.662;2022-07-29T07:47:46;2.58;;;2.40;;
11893;SDS011;6006;49.696;8.662;2022-07-29T07:50:13;2.60;;;2.40;;
11893;SDS011;6006;49.696;8.662;2022-07-29T07:52:46;3.33;;;2.47;;
11893;SDS011;6006;49.696;8.662;2022-07-29T07:55:14;2.75;;;2.50;;
11893;SDS011;6006;49.696;8.662;2022-07-29T07:57:41;3.50;;;2.30;;
11893;SDS011;6006;49.696;8.662;2022-07-29T08:00:10;2.85;;;2.65;;
11893;SDS011;6006;49.696;8.662;2022-07-29T08:02:38;2.83;;;2.53;;
11893;SDS011;6006;49.696;8.662;2022-07-29T08:05:07;3.00;;;2.72;;
11893;SDS011;6006;49.696;8.662;2022-07-29T08:07:35;3.70;;;2.38;;
11893;SDS011;6006;49.696;8.662;2022-07-29T08:10:02;2.60;;;2.50;;
11893;SDS011;6006;49.696;8.662;2022-07-29T08:12:30;2.78;;;2.63;;
11893;SDS011;6006;49.696;8.662;2022-07-29T08:14:57;2.60;;;2.40;;
11893;SDS011;6006;49.696;8.662;2022-07-29T08:17:25;2.72;;;2.53;;
11893;SDS011;6006;49.696;8.662;2022-07-29T08:19:52;4.00;;;2.60;;
11893;SDS011;6006;49.696;8.662;2022-07-29T08:22:20;4.20;;;2.85;;
11893;SDS011;6006;49.696;8.662;2022-07-29T08:24:46;2.42;;;2.33;;
11893;SDS011;6006;49.696;8.662;2022-07-29T08:27:19;2.65;;;2.45;;
11893;SDS011;6006;49.696;8.662;2022-07-29T08:29:46;4.22;;;3.00;;
11893;SDS011;6006;49.696;8.662;2022-07-29T08:32:13;3.83;;;2.45;;
11893;SDS011;6006;49.696;8.662;2022-07-29T08:34:42;2.92;;;2.72;;
11893;SDS011;6006;49.696;8.662;2022-07-29T08:37:11;2.80;;;2.58;;
11893;SDS011;6006;49.696;8.662;2022-07-29T08:39:38;2.95;;;2.75;;
11893;SDS011;6006;49.696;8.662;2022-07-29T08:42:05;3.17;;;2.60;;
11893;SDS011;6006;49.696;8.662;2022-07-29T08:44:32;2.60;;;2.40;;
11893;SDS011;6006;49.696;8.662;2022-07-29T08:47:00;2.60;;;2.40;;
11893;SDS011;6006;49.696;8.662;2022-07-29T08:49:27;2.97;;;2.78;;
11893;SDS011;6006;49.696;8.662;2022-07-29T08:51:56;3.45;;;2.58;;
11893;SDS011;6006;49.696;8.662;2022-07-29T08:54:24;3.33;;;2.63;;
11893;SDS011;6006;49.696;8.662;2022-07-29T08:56:51;3.50;;;2.75;;
11893;SDS011;6006;49.696;8.662;2022-07-29T08:59:19;3.03;;;2.83;;
11893;SDS011;6006;49.696;8.662;2022-07-29T09:01:47;2.90;;;2.70;;
11893;SDS011;6006;49.696;8.662;2022-07-29T09:04:15;4.32;;;2.83;;
11893;SDS011;6006;49.696;8.662;2022-07-29T09:06:44;4.47;;;3.30;;
11893;SDS011;6006;49.696;8.662;2022-07-29T09:09:15;2.88;;;2.67;;
11893;SDS011;6006;49.696;8.662;2022-07-29T09:11:43;4.75;;;3.00;;
11893;SDS011;6006;49.696;8.662;2022-07-29T09:14:11;3.70;;;3.40;;
11893;SDS011;6006;49.696;8.662;2022-07-29T09:16:45;3.25;;;2.97;;
11893;SDS011;6006;49.696;8.662;2022-07-29T09:19:21;3.20;;;2.90;;
11893;SDS011;6006;49.696;8.662;2022-07-29T09:21:52;4.00;;;3.40;;
11893;SDS011;6006;49.696;8.662;2022-07-29T09:24:30;3.45;;;3.03;;
11893;SDS011;6006;49.696;8.662;2022-07-29T09:27:08;5.30;;;3.42;;
11893;SDS011;6006;49.696;8.662;2022-07-29T09:29:37;3.60;;;3.30;;
11893;SDS011;6006;49.696;8.662;2022-07-29T09:32:05;3.15;;;2.92;;
11893;SDS011;6006;49.696;8.662;2022-07-29T09:34:35;3.60;;;3.33;;
11893;SDS011;6006;49.696;8.662;2022-07-29T09:37:02;5.13;;;3.38;;
11893;SDS011;6006;49.696;8.662;2022-07-29T09:39:32;4.45;;;3.67;;
11893;SDS011;6006;49.696;8.662;2022-07-29T09:42:02;3.50;;;3.20;;
11893;SDS011;6006;49.696;8.662;2022-07-29T09:44:46;4.20;;;3.10;;
11893;SDS011;6006;49.696;8.662;2022-07-29T09:47:14;4.20;;;3.47;;
11893;SDS011;6006;49.696;8.662;2022-07-29T09:49:51;4.75;;;3.35;;
11893;SDS011;6006;49.696;8.662;2022-07-29T09:52:20;4.95;;;3.97;;
11893;SDS011;6006;49.696;8.662;2022-07-29T09:54:48;3.60;;;3.35;;
11893;SDS011;6006;49.696;8.662;2022-07-29T09:57:23;6.32;;;3.53;;
11893;SDS011;6006;49.696;8.662;2022-07-29T09:59:55;3.47;;;3.17;;
11893;SDS011;6006;49.696;8.662;2022-07-29T10:02:27;4.35;;;3.10;;
11893;SDS011;6006;49.696;8.662;2022-07-29T10:04:55;3.78;;;3.47;;
11893;SDS011;6006;49.696;8.662;2022-07-29T10:07:22;3.58;;;3.28;;
11893;SDS011;6006;49.696;8.662;2022-07-29T10:09:54;5.88;;;3.55;;
11893;SDS011;6006;49.696;8.662;2022-07-29T10:12:22;5.07;;;3.28;;
11893;SDS011;6006;49.696;8.662;2022-07-29T10:14:50;4.38;;;3.35;;
11893;SDS011;6006;49.696;8.662;2022-07-29T10:17:17;4.97;;;3.63;;
11893;SDS011;6006;49.696;8.662;2022-07-29T10:19:45;3.70;;;3.40;;
11893;SDS011;6006;49.696;8.662;2022-07-29T10:22:13;4.40;;;3.38;;
11893;SDS011;6006;49.696;8.662;2022-07-29T10:24:40;3.30;;;3.10;;
11893;SDS011;6006;49.696;8.662;2022-07-29T10:27:09;3.75;;;3.45;;
11893;SDS011;6006;49.696;8.662;2022-07-29T10:29:36;3.08;;;2.88;;
11893;SDS011;6006;49.696;8.662;2022-07-29T10:35:06;3.42;;;3.08;;
11893;SDS011;6006;49.696;8.662;2022-07-29T10:37:47;4.15;;;3.13;;
11893;SDS011;6006;49.696;8.662;2022-07-29T10:40:36;4.40;;;3.00;;
11893;SDS011;6006;49.696;8.662;2022-07-29T10:43:35;3.42;;;3.20;;
11893;SDS011;6006;49.696;8.662;2022-07-29T10:46:07;3.65;;;3.00;;
11893;SDS011;6006;49.696;8.662;2022-07-29T10:48:34;3.10;;;2.80;;
11893;SDS011;6006;49.696;8.662;2022-07-29T10:51:03;3.40;;;3.20;;
11893;SDS011;6006;49.696;8.662;2022-07-29T10:53:45;4.07;;;3.25;;
11893;SDS011;6006;49.696;8.662;2022-07-29T11:01:53;4.07;;;3.15;;
11893;SDS011;6006;49.696;8.662;2022-07-29T11:07:24;3.20;;;3.00;;
11893;SDS011;6006;49.696;8.662;2022-07-29T11:12:47;3.22;;;2.95;;
11893;SDS011;6006;49.696;8.662;2022-07-29T11:15:16;2.88;;;2.70;;
11893;SDS011;6006;49.696;8.662;2022-07-29T11:18:04;3.58;;;3.28;;
11893;SDS011;6006;49.696;8.662;2022-07-29T11:20:32;3.70;;;3.28;;
11893;SDS011;6006;49.696;8.662;2022-07-29T11:23:02;3.95;;;3.33;;
11893;SDS011;6006;49.696;8.662;2022-07-29T11:25:44;2.95;;;2.75;;
11893;SDS011;6006;49.696;8.662;2022-07-29T11:28:13;3.40;;;3.10;;
11893;SDS011;6006;49.696;8.662;2022-07-29T11:30:48;3.15;;;2.95;;
11893;SDS011;6006;49.696;8.662;2022-07-29T11:33:29;3.35;;;2.92;;
11893;SDS011;6006;49.696;8.662;2022-07-29T11:36:07;5.53;;;3.35;;
11893;SDS011;6006;49.696;8.662;2022-07-29T11:38:35;3.45;;;3.15;;
11893;SDS011;6006;49.696;8.662;2022-07-29T11:43:49;6.90;;;3.50;;
11893;SDS011;6006;49.696;8.662;2022-07-29T11:46:19;5.13;;;2.80;;
11893;SDS011;6006;49.696;8.662;2022-07-29T11:49:15;3.40;;;3.08;;
11893;SDS011;6006;49.696;8.662;2022-07-29T11:51:49;3.40;;;3.10;;
11893;SDS011;6006;49.696;8.662;2022-07-29T11:54:21;4.93;;;3.58;;
11893;SDS011;6006;49.696;8.662;2022-07-29T11:56:51;4.45;;;4.05;;
11893;SDS011;6006;49.696;8.662;2022-07-29T11:59:19;3.75;;;3.33;;
11893;SDS011;6006;49.696;8.662;2022-07-29T12:01:53;3.85;;;3.55;;
11893;SDS011;6006;49.696;8.662;2022-07-29T12:04:20;3.95;;;3.13;;
11893;SDS011;6006;49.696;8.662;2022-07-29T12:06:48;7.22;;;3.50;;
11893;SDS011;6006;49.696;8.662;2022-07-29T12:09:16;3.95;;;3.63;;
11893;SDS011;6006;49.696;8.662;2022-07-29T12:11:43;3.65;;;3.10;;
11893;SDS011;6006;49.696;8.662;2022-07-29T12:14:23;4.53;;;4.07;;
11893;SDS011;6006;49.696;8.662;2022-07-29T12:16:51;5.30;;;3.70;;
11893;SDS011;6006;49.696;8.662;2022-07-29T12:19:20;4.20;;;3.80;;
11893;SDS011;6006;49.696;8.662;2022-07-29T12:21:47;3.65;;;3.35;;
11893;SDS011;6006;49.696;8.662;2022-07-29T12:24:14;4.45;;;4.15;;
11893;SDS011;6006;49.696;8.662;2022-07-29T12:26:51;4.53;;;3.70;;
11893;SDS011;6006;49.696;8.662;2022-07-29T12:29:18;4.95;;;3.40;;
11893;SDS011;6006;49.696;8.662;2022-07-29T12:31:45;3.53;;;3.30;;
11893;SDS011;6006;49.696;8.662;2022-07-29T12:34:15;3.50;;;3.03;;
11893;SDS011;6006;49.696;8.662;2022-07-29T12:36:42;6.90;;;3.58;;
11893;SDS011;6006;49.696;8.662;2022-07-29T12:39:10;4.18;;;3.35;;
11893;SDS011;6006;49.696;8.662;2022-07-29T12:41:37;5.18;;;3.05;;
11893;SDS011;6006;49.696;8.662;2022-07-29T12:44:04;3.25;;;3.05;;
11893;SDS011;6006;49.696;8.662;2022-07-29T12:46:31;4.22;;;3.83;;
11893;SDS011;6006;49.696;8.662;2022-07-29T12:48:58;4.10;;;3.70;;
11893;SDS011;6006;49.696;8.662;2022-07-29T12:51:30;7.35;;;4.28;;
11893;SDS011;6006;49.696;8.662;2022-07-29T12:54:05;3.47;;;3.17;;
11893;SDS011;6006;49.696;8.662;2022-07-29T12:56:33;4.00;;;3.35;;
11893;SDS011;6006;49.696;8.662;2022-07-29T12:59:10;3.65;;;3.08;;
11893;SDS011;6006;49.696;8.662;2022-07-29T13:01:38;5.05;;;3.00;;
11893;SDS011;6006;49.696;8.662;2022-07-29T13:04:05;3.20;;;3.00;;
11893;SDS011;6006;49.696;8.662;2022-07-29T13:06:38;3.80;;;2.75;;
11893;SDS011;6006;49.696;8.662;2022-07-29T13:09:07;3.08;;;2.78;;
11893;SDS011;6006;49.696;8.662;2022-07-29T13:11:36;2.70;;;2.50;;
11893;SDS011;6006;49.696;8.662;2022-07-29T13:14:05;3.15;;;2.50;;
11893;SDS011;6006;49.696;8.662;2022-07-29T13:16:34;3.65;;;2.70;;
11893;SDS011;6006;49.696;8.662;2022-07-29T13:19:05;3.17;;;2.60;;
11893;SDS011;6006;49.696;8.662;2022-07-29T13:21:33;5.30;;;2.72;;
11893;SDS011;6006;49.696;8.662;2022-07-29T13:24:01;3.60;;;2.40;;
11893;SDS011;6006;49.696;8.662;2022-07-29T13:26:28;3.22;;;2.45;;
11893;SDS011;6006;49.696;8.662;2022-07-29T13:29:00;3.40;;;2.30;;
11893;SDS011;6006;49.696;8.662;2022-07-29T13:31:57;2.90;;;2.33;;
11893;SDS011;6006;49.696;8.662;2022-07-29T13:34:51;6.30;;;2.70;;
11893;SDS011;6006;49.696;8.662;2022-07-29T13:37:33;5.47;;;2.65;;
11893;SDS011;6006;49.696;8.662;2022-07-29T13:40:21;3.25;;;2.33;;
11893;SDS011;6006;49.696;8.662;2022-07-29T13:43:05;4.05;;;2.55;;
11893;SDS011;6006;49.696;8.662;2022-07-29T13:45:43;2.25;;;2.15;;
11893;SDS011;6006;49.696;8.662;2022-07-29T13:48:17;2.70;;;2.47;;
11893;SDS011;6006;49.696;8.662;2022-07-29T13:51:02;3.58;;;2.75;;
11893;SDS011;6006;49.696;8.662;2022-07-29T13:53:35;4.05;;;2.78;;
11893;SDS011;6006;49.696;8.662;2022-07-29T13:56:06;2.30;;;2.10;;
11893;SDS011;6006;49.696;8.662;2022-07-29T13:58:39;2.95;;;2.65;;
11893;SDS011;6006;49.696;8.662;2022-07-29T14:01:17;4.18;;;2.47;;
11893;SDS011;6006;49.696;8.662;2022-07-29T14:03:54;2.95;;;2.75;;
11893;SDS011;6006;49.696;8.662;2022-07-29T14:06:35;3.28;;;2.67;;
11893;SDS011;6006;49.696;8.662;2022-07-29T14:09:08;4.53;;;3.40;;
11893;SDS011;6006;49.696;8.662;2022-07-29T14:11:50;3.60;;;2.40;;
11893;SDS011;6006;49.696;8.662;2022-07-29T14:14:20;2.67;;;2.33;;
11893;SDS011;6006;49.696;8.662;2022-07-29T14:16:51;2.70;;;2.58;;
11893;SDS011;6006;49.696;8.662;2022-07-29T14:19:23;4.10;;;2.50;;
11893;SDS011;6006;49.696;8.662;2022-07-29T14:21:59;2.90;;;2.63;;
11893;SDS011;6006;49.696;8.662;2022-07-29T14:24:30;3.13;;;2.83;;
11893;SDS011;6006;49.696;8.662;2022-07-29T14:27:02;5.85;;;2.90;;
11893;SDS011;6006;49.696;8.662;2022-07-29T14:29:35;4.28;;;2.83;;
11893;SDS011;6006;49.696;8.662;2022-07-29T14:32:09;6.82;;;3.10;;
11893;SDS011;6006;49.696;8.662;2022-07-29T14:34:53;3.10;;;2.80;;
11893;SDS011;6006;49.696;8.662;2022-07-29T14:37:24;3.03;;;2.67;;
11893;SDS011;6006;49.696;8.662;2022-07-29T14:39:53;2.72;;;2.53;;
11893;SDS011;6006;49.696;8.662;2022-07-29T14:42:27;2.70;;;2.50;;
11893;SDS011;6006;49.696;8.662;2022-07-29T14:45:03;3.15;;;2.85;;
11893;SDS011;6006;49.696;8.662;2022-07-29T14:47:37;3.10;;;2.80;;
11893;SDS011;6006;49.696;8.662;2022-07-29T14:50:07;2.85;;;2.63;;
11893;SDS011;6006;49.696;8.662;2022-07-29T14:52:35;3.95;;;2.90;;
11893;SDS011;6006;49.696;8.662;2022-07-29T14:55:02;4.03;;;2.85;;
11893;SDS011;6006;49.696;8.662;2022-07-29T14:57:31;4.15;;;2.90;;
11893;SDS011;6006;49.696;8.662;2022-07-29T14:59:58;2.90;;;2.67;;
11893;SDS011;6006;49.696;8.662;2022-07-29T15:02:25;3.35;;;2.45;;
11893;SDS011;6006;49.696;8.662;2022-07-29T15:04:52;2.95;;;2.58;;
11893;SDS011;6006;49.696;8.662;2022-07-29T15:07:18;3.80;;;2.83;;
11893;SDS011;6006;49.696;8.662;2022-07-29T15:09:45;3.50;;;2.90;;
11893;SDS011;6006;49.696;8.662;2022-07-29T15:12:12;3.40;;;2.65;;
11893;SDS011;6006;49.696;8.662;2022-07-29T15:14:41;4.00;;;2.97;;
11893;SDS011;6006;49.696;8.662;2022-07-29T15:17:07;4.30;;;2.90;;
11893;SDS011;6006;49.696;8.662;2022-07-29T15:19:34;4.43;;;3.10;;
11893;SDS011;6006;49.696;8.662;2022-07-29T15:22:02;2.83;;;2.53;;
11893;SDS011;6006;49.696;8.662;2022-07-29T15:24:30;6.22;;;3.08;;
11893;SDS011;6006;49.696;8.662;2022-07-29T15:26:57;2.47;;;2.38;;
11893;SDS011;6006;49.696;8.662;2022-07-29T15:29:24;2.83;;;2.63;;
11893;SDS011;6006;49.696;8.662;2022-07-29T15:31:52;2.97;;;2.75;;
11893;SDS011;6006;49.696;8.662;2022-07-29T15:34:19;3.20;;;2.90;;
11893;SDS011;6006;49.696;8.662;2022-07-29T15:36:48;2.72;;;2.50;;